Time;durP1;ratioP1;P1;durP2;ratioP2;P2;SDS_P1;SDS_P2;PMS_P1;PMS_P2;Temp;Humidity;BMP_temperature;BMP_pressure;BME280_temperature;BME280_humidity;BME280_pressure;Samples;Min_cycle;Max_cycle;Signal;HPM_P1;HPM_P2
2021/04/01 00:00:17;;;;;;;24.63;13.17;;;14.30;56.00;;;;;;4934753;29;20406;-79
2021/04/01 00:02:51;;;;;;;24.60;12.83;;;14.20;56.10;;;;;;4941820;29;20406;-81
2021/04/01 00:05:18;;;;;;;16.97;11.50;;;14.20;56.30;;;;;;4922218;29;20505;-78
2021/04/01 00:07:44;;;;;;;25.63;12.70;;;14.20;56.40;;;;;;4921900;29;20429;-78
2021/04/01 00:10:13;;;;;;;17.50;11.93;;;14.20;56.40;;;;;;4906432;29;20928;-78
2021/04/01 00:12:39;;;;;;;35.43;12.47;;;14.20;56.30;;;;;;4921299;29;20166;-79
2021/04/01 00:15:07;;;;;;;19.90;11.40;;;14.20;56.30;;;;;;4930610;29;20478;-78
2021/04/01 00:17:33;;;;;;;16.97;12.60;;;14.20;56.30;;;;;;4955608;28;20484;-76
2021/04/01 00:19:59;;;;;;;21.60;12.50;;;14.10;56.50;;;;;;4956505;28;20437;-79
2021/04/01 00:22:24;;;;;;;23.67;12.73;;;14.10;56.70;;;;;;4936889;29;20406;-77
2021/04/01 00:24:53;;;;;;;23.63;13.20;;;14.00;56.90;;;;;;4949388;28;20269;-79
2021/04/01 00:27:22;;;;;;;18.30;12.10;;;13.90;57.10;;;;;;4924878;29;20649;-80
2021/04/01 00:29:48;;;;;;;16.10;11.20;;;13.90;57.30;;;;;;4955588;29;20498;-79
2021/04/01 00:32:13;;;;;;;21.70;11.47;;;13.80;57.60;;;;;;4948409;29;20433;-79
2021/04/01 00:34:39;;;;;;;22.30;11.70;;;13.80;57.80;;;;;;4946037;29;20697;-80
2021/04/01 00:37:05;;;;;;;19.87;11.40;;;13.80;57.70;;;;;;4912602;29;20238;-77
2021/04/01 00:39:31;;;;;;;18.53;11.37;;;13.90;57.70;;;;;;4912902;29;20174;-79
2021/04/01 00:41:57;;;;;;;17.03;11.60;;;13.80;57.80;;;;;;4931687;29;20452;-80
2021/04/01 00:44:23;;;;;;;19.87;12.50;;;13.80;58.00;;;;;;4929104;29;20174;-78
2021/04/01 00:46:49;;;;;;;21.40;13.27;;;13.70;58.10;;;;;;4931246;29;20181;-81
2021/04/01 00:49:16;;;;;;;19.33;11.30;;;13.70;58.30;;;;;;4950227;29;20241;-80
2021/04/01 00:51:44;;;;;;;21.17;11.77;;;13.60;58.50;;;;;;4915735;29;20421;-82
2021/04/01 00:54:10;;;;;;;19.53;11.10;;;13.60;58.70;;;;;;4925794;29;20422;-80
2021/04/01 00:56:36;;;;;;;18.27;12.83;;;13.60;58.70;;;;;;4942877;29;20273;-81
2021/04/01 00:59:02;;;;;;;22.43;11.63;;;13.60;58.50;;;;;;4924124;29;20182;-81
2021/04/01 01:03:57;;;;;;;17.00;10.93;;;13.70;58.50;;;;;;4942386;29;20437;-80
2021/04/01 01:06:22;;;;;;;22.30;12.47;;;13.60;58.60;;;;;;4942636;29;20437;-81
2021/04/01 01:08:48;;;;;;;15.87;11.03;;;13.60;58.60;;;;;;4929919;29;20182;-81
2021/04/01 01:11:14;;;;;;;20.20;12.00;;;13.60;58.70;;;;;;4924313;29;20208;-80
2021/04/01 01:13:40;;;;;;;30.43;11.63;;;13.60;59.40;;;;;;4940714;29;20181;-81
2021/04/01 01:16:06;;;;;;;15.90;11.80;;;13.60;59.00;;;;;;4939867;29;20206;-80
2021/04/01 01:18:32;;;;;;;19.53;11.50;;;13.50;59.00;;;;;;4939932;29;20173;-81
2021/04/01 01:20:59;;;;;;;18.13;13.40;;;13.50;59.00;;;;;;4940926;29;20417;-80
2021/04/01 01:23:27;;;;;;;16.47;11.60;;;13.50;58.80;;;;;;4926167;29;20280;-80
2021/04/01 01:25:54;;;;;;;19.23;11.83;;;13.50;58.90;;;;;;4934169;29;20425;-80
2021/04/01 01:28:22;;;;;;;18.03;11.97;;;13.50;58.90;;;;;;4934356;29;20425;-78
2021/04/01 01:30:47;;;;;;;19.50;11.10;;;13.50;58.80;;;;;;4939271;29;20426;-78
2021/04/01 01:33:18;;;;;;;21.77;10.90;;;13.60;58.70;;;;;;4923597;29;20429;-79
2021/04/01 01:35:44;;;;;;;15.30;10.63;;;13.60;58.70;;;;;;4940204;29;20465;-78
2021/04/01 01:38:10;;;;;;;22.90;12.00;;;13.60;58.80;;;;;;4926126;29;20428;-80
2021/04/01 01:40:37;;;;;;;19.63;10.27;;;13.60;58.90;;;;;;4925767;29;20428;-78
2021/04/01 01:43:08;;;;;;;19.23;11.60;;;13.50;58.90;;;;;;4941124;29;20438;-79
2021/04/01 01:45:34;;;;;;;21.23;10.83;;;13.40;59.20;;;;;;4926645;29;20842;-80
2021/04/01 01:48:00;;;;;;;23.80;11.80;;;13.30;59.50;;;;;;4916794;29;20421;-79
2021/04/01 01:50:29;;;;;;;18.10;11.47;;;13.30;59.80;;;;;;4932679;29;20454;-78
2021/04/01 01:52:55;;;;;;;18.80;12.57;;;13.30;59.80;;;;;;4920509;29;20422;-80
2021/04/01 01:55:21;;;;;;;22.83;11.43;;;13.30;59.70;;;;;;4916982;29;20445;-78
2021/04/01 01:57:47;;;;;;;17.23;11.20;;;13.20;59.90;;;;;;4942988;29;20435;-77
2021/04/01 02:00:26;;;;;;;18.80;10.87;;;13.20;60.00;;;;;;4908827;29;20181;-79
2021/04/01 02:03:04;;;;;;;13.10;9.60;;;13.20;60.10;;;;;;4925530;29;20181;-78
2021/04/01 02:05:31;;;;;;;16.13;9.40;;;13.10;59.90;;;;;;4949137;29;20436;-78
2021/04/01 02:07:58;;;;;;;20.97;10.67;;;13.20;59.80;;;;;;4950164;29;20418;-78
2021/04/01 02:10:27;;;;;;;20.23;11.00;;;13.20;59.60;;;;;;4950522;29;20417;-78
2021/04/01 02:12:54;;;;;;;16.23;10.57;;;13.10;59.60;;;;;;4942508;29;20798;-78
2021/04/01 02:15:24;;;;;;;14.20;9.70;;;13.10;59.70;;;;;;4943762;29;20433;-79
2021/04/01 02:17:50;;;;;;;15.73;10.90;;;13.10;59.70;;;;;;4946221;29;20944;-79
2021/04/01 02:20:17;;;;;;;16.57;9.73;;;13.00;59.70;;;;;;4937506;29;20414;-80
2021/04/01 02:22:43;;;;;;;17.80;11.07;;;13.00;59.70;;;;;;4953540;29;20209;-79
2021/04/01 02:25:10;;;;;;;15.00;9.67;;;13.00;60.40;;;;;;4935122;29;20441;-79
2021/04/01 02:27:36;;;;;;;18.60;9.30;;;13.10;59.90;;;;;;4915861;29;20184;-78
2021/04/01 02:30:02;;;;;;;18.03;11.17;;;13.00;59.70;;;;;;4912372;29;20493;-78
2021/04/01 02:32:28;;;;;;;14.23;9.60;;;13.10;59.80;;;;;;4915503;29;20426;-79
2021/04/01 02:34:54;;;;;;;17.23;10.80;;;13.00;59.80;;;;;;4913696;29;20473;-80
2021/04/01 02:37:20;;;;;;;16.73;10.60;;;13.00;59.80;;;;;;4922013;29;20182;-79
2021/04/01 02:39:45;;;;;;;14.93;9.80;;;12.90;59.80;;;;;;4959787;28;20233;-80
2021/04/01 02:42:12;;;;;;;14.53;9.40;;;12.90;59.90;;;;;;4944270;29;20203;-78
2021/04/01 02:44:38;;;;;;;15.40;9.73;;;12.90;60.10;;;;;;4946842;29;20618;-79
2021/04/01 02:47:04;;;;;;;12.83;10.17;;;12.80;60.30;;;;;;4940683;29;20990;-77
2021/04/01 02:49:30;;;;;;;17.17;10.10;;;12.90;60.60;;;;;;4922524;29;20433;-79
2021/04/01 02:51:56;;;;;;;20.77;10.67;;;12.90;60.40;;;;;;4923269;29;20504;-79
2021/04/01 02:54:22;;;;;;;12.77;9.27;;;12.90;60.20;;;;;;4922881;29;20440;-78
2021/04/01 02:56:47;;;;;;;18.33;9.07;;;12.90;60.10;;;;;;4921114;29;20659;-79
2021/04/01 02:59:13;;;;;;;21.10;10.00;;;12.90;60.10;;;;;;4938576;29;20274;-79
2021/04/01 03:01:39;;;;;;;15.30;9.73;;;12.90;60.10;;;;;;4937750;29;20200;-78
2021/04/01 03:04:07;;;;;;;22.53;10.30;;;12.90;60.40;;;;;;4922710;29;20177;-78
2021/04/01 03:06:34;;;;;;;16.63;10.57;;;12.90;60.80;;;;;;4920249;29;20710;-77
2021/04/01 03:09:00;;;;;;;14.90;10.63;;;12.90;61.00;;;;;;4924532;29;20435;-78
2021/04/01 03:11:25;;;;;;;15.13;9.60;;;12.90;61.30;;;;;;4905157;29;20450;-78
2021/04/01 03:13:51;;;;;;;19.50;10.50;;;12.90;61.40;;;;;;4922165;29;20561;-77
2021/04/01 03:16:17;;;;;;;16.83;10.30;;;12.90;61.50;;;;;;4921980;29;20201;-77
2021/04/01 03:18:42;;;;;;;15.70;9.60;;;12.90;61.50;;;;;;4921894;29;20661;-80
2021/04/01 03:21:08;;;;;;;14.80;9.93;;;12.90;61.50;;;;;;4920964;29;20501;-79
2021/04/01 03:23:34;;;;;;;15.63;10.03;;;12.80;61.40;;;;;;4929443;29;20170;-77
2021/04/01 03:25:59;;;;;;;20.20;11.43;;;12.80;61.40;;;;;;4927391;29;20260;-78
2021/04/01 03:28:26;;;;;;;18.30;9.70;;;12.80;61.50;;;;;;4921462;29;20174;-78
2021/04/01 03:31:00;;;;;;;17.27;10.47;;;12.80;61.70;;;;;;4902824;29;20249;-78
2021/04/01 03:33:30;;;;;;;12.30;9.97;;;12.80;62.00;;;;;;4904773;29;20802;-77
2021/04/01 03:35:56;;;;;;;16.00;10.77;;;12.70;62.10;;;;;;4904808;29;20874;-79
2021/04/01 03:38:22;;;;;;;12.90;10.13;;;12.70;62.40;;;;;;4921397;29;20432;-78
2021/04/01 03:40:51;;;;;;;13.90;9.77;;;12.70;62.50;;;;;;4938624;29;20217;-80
2021/04/01 03:43:18;;;;;;;19.63;11.57;;;12.70;62.60;;;;;;4923577;29;20903;-79
2021/04/01 03:45:44;;;;;;;22.87;11.33;;;12.70;62.50;;;;;;4937853;29;20457;-80
2021/04/01 03:48:10;;;;;;;15.50;9.87;;;12.70;62.60;;;;;;4921523;29;20912;-79
2021/04/01 03:50:36;;;;;;;31.43;11.03;;;12.70;62.80;;;;;;4921783;29;20446;-78
2021/04/01 03:53:01;;;;;;;22.60;10.77;;;12.70;62.70;;;;;;4920130;29;20170;-78
2021/04/01 04:00:37;;;;;;;20.03;10.60;;;12.80;61.60;;;;;;4948143;29;20409;-79
2021/04/01 04:06:11;;;;;;;14.40;11.50;;;12.80;61.30;;;;;;4937883;29;20463;-77
2021/04/01 04:15:47;;;;;;;20.77;11.27;;;12.70;61.60;;;;;;4937557;29;20485;-77
2021/04/01 04:18:13;;;;;;;15.33;11.43;;;12.80;61.80;;;;;;4938021;29;20166;-79
2021/04/01 04:20:39;;;;;;;17.30;10.67;;;12.80;61.60;;;;;;4938826;29;20178;-79
2021/04/01 04:23:07;;;;;;;16.50;10.33;;;12.80;61.60;;;;;;4921736;29;20166;-78
2021/04/01 04:25:35;;;;;;;21.90;11.30;;;12.80;61.60;;;;;;4923682;29;20841;-79
2021/04/01 04:30:29;;;;;;;18.47;9.43;;;12.80;61.20;;;;;;4933948;29;20903;-72
2021/04/01 04:32:56;;;;;;;15.43;10.93;;;12.70;61.00;;;;;;4933778;29;20438;-71
2021/04/01 04:35:21;;;;;;;16.97;9.10;;;12.70;61.10;;;;;;4933151;29;20269;-72
2021/04/01 04:37:47;;;;;;;19.00;9.90;;;12.70;61.00;;;;;;4946030;28;20611;-73
2021/04/01 04:40:14;;;;;;;23.40;10.17;;;12.70;61.00;;;;;;4952835;29;20225;-72
2021/04/01 04:42:40;;;;;;;22.33;9.70;;;12.70;60.90;;;;;;4953210;29;20405;-73
2021/04/01 04:45:08;;;;;;;17.70;9.00;;;12.70;60.90;;;;;;4940696;28;20409;-73
2021/04/01 04:47:34;;;;;;;18.27;10.60;;;12.70;60.90;;;;;;4926613;29;20429;-73
2021/04/01 04:50:00;;;;;;;17.43;9.80;;;12.70;60.70;;;;;;4952570;28;20460;-73
2021/04/01 04:52:27;;;;;;;18.37;10.00;;;12.80;60.90;;;;;;4952451;28;20425;-71
2021/04/01 04:54:52;;;;;;;16.87;10.30;;;12.80;60.70;;;;;;4952636;28;20191;-72
2021/04/01 05:05:07;;;;;;;18.47;9.70;;;12.80;60.60;;;;;;4935020;29;20420;-73
2021/04/01 05:07:33;;;;;;;17.03;10.13;;;12.70;60.60;;;;;;4925705;29;20430;-73
2021/04/01 05:09:59;;;;;;;12.37;9.63;;;12.80;60.80;;;;;;4931048;29;20451;-72
2021/04/01 05:12:24;;;;;;;14.20;9.10;;;12.80;60.90;;;;;;4952883;29;20416;-73
2021/04/01 05:14:50;;;;;;;17.23;9.40;;;12.80;61.00;;;;;;4952392;28;20424;-73
2021/04/01 05:17:20;;;;;;;19.00;10.70;;;12.80;60.90;;;;;;4952723;29;20204;-72
2021/04/01 05:19:48;;;;;;;16.77;10.83;;;12.80;60.60;;;;;;4919773;29;20197;-72
2021/04/01 05:22:18;;;;;;;21.70;10.47;;;12.70;60.30;;;;;;4935915;29;20417;-72
2021/04/01 05:24:43;;;;;;;16.20;9.40;;;12.70;60.30;;;;;;4912100;29;20429;-72
2021/04/01 05:29:38;;;;;;;14.73;9.90;;;12.60;60.70;;;;;;4914995;29;20204;-73
2021/04/01 05:32:05;;;;;;;18.70;11.90;;;12.60;60.80;;;;;;4936014;29;20212;-72
2021/04/01 05:34:31;;;;;;;13.73;9.73;;;12.60;60.80;;;;;;4948014;29;20799;-72
2021/04/01 05:37:00;;;;;;;17.80;8.83;;;12.60;61.10;;;;;;4916320;29;20458;-72
2021/04/01 05:39:33;;;;;;;16.03;9.47;;;12.60;61.10;;;;;;4936494;29;20572;-72
2021/04/01 05:41:59;;;;;;;12.33;9.00;;;12.60;61.00;;;;;;4928070;29;20436;-71
2021/04/01 05:44:36;;;;;;;17.10;10.30;;;12.60;61.00;;;;;;4933097;29;20935;-73
2021/04/01 05:47:10;;;;;;;15.20;9.60;;;12.60;61.00;;;;;;4931907;29;20420;-72
2021/04/01 05:52:31;;;;;;;27.43;10.70;;;12.70;61.00;;;;;;4940295;29;20421;-72
2021/04/01 05:58:39;;;;;;;13.03;10.10;;;12.70;61.00;;;;;;4951645;28;20460;-73
2021/04/01 06:03:50;;;;;;;16.13;9.47;;;12.80;60.70;;;;;;4937477;29;20416;-71
2021/04/01 06:06:19;;;;;;;13.80;9.80;;;12.80;60.20;;;;;;4942930;29;20785;-71
2021/04/01 06:08:50;;;;;;;25.67;10.30;;;12.90;60.20;;;;;;4933139;29;20418;-72
2021/04/01 06:11:19;;;;;;;26.53;11.70;;;12.90;60.60;;;;;;4930857;29;20485;-73
2021/04/01 06:14:13;;;;;;;17.73;11.23;;;13.00;59.70;;;;;;4933054;29;20792;-73
2021/04/01 06:16:44;;;;;;;24.93;10.40;;;13.10;59.60;;;;;;4919063;29;20895;-72
2021/04/01 06:19:16;;;;;;;23.13;11.57;;;13.10;59.40;;;;;;4939913;29;20460;-73
2021/04/01 06:21:49;;;;;;;15.13;9.60;;;13.10;59.30;;;;;;4914749;29;20895;-73
2021/04/01 06:24:14;;;;;;;18.67;11.03;;;13.20;59.90;;;;;;4943628;29;21168;-72
2021/04/01 06:26:48;;;;;;;22.63;10.27;;;13.20;59.20;;;;;;4925340;29;20580;-73
2021/04/01 06:29:18;;;;;;;16.00;10.57;;;13.20;59.00;;;;;;4939409;28;20587;-72
2021/04/01 06:31:45;;;;;;;15.13;9.23;;;13.30;59.20;;;;;;4954901;29;20511;-71
2021/04/01 06:34:12;;;;;;;23.57;10.83;;;13.40;59.10;;;;;;4954642;29;20408;-71
2021/04/01 06:36:54;;;;;;;16.63;9.47;;;13.40;58.80;;;;;;4956209;28;20819;-73
2021/04/01 06:39:21;;;;;;;20.30;10.57;;;13.50;58.50;;;;;;4931711;29;20503;-72
2021/04/01 06:41:49;;;;;;;25.57;10.10;;;13.70;58.20;;;;;;4937571;29;20741;-73
2021/04/01 06:44:30;;;;;;;20.07;10.77;;;13.80;58.00;;;;;;4919276;29;20480;-73
2021/04/01 06:47:12;;;;;;;14.57;10.50;;;13.90;57.40;;;;;;4936568;29;20475;-72
2021/04/01 06:50:05;;;;;;;17.93;9.33;;;14.10;57.00;;;;;;4949400;28;20467;-72
2021/04/01 06:52:42;;;;;;;15.40;9.10;;;14.10;56.40;;;;;;4940088;29;20410;-73
2021/04/01 07:03:18;;;;;;;15.63;9.40;;;14.60;55.60;;;;;;4936416;29;20429;-72
2021/04/01 07:05:54;;;;;;;20.63;12.20;;;14.70;55.60;;;;;;4932606;29;20437;-72
2021/04/01 07:08:40;;;;;;;18.47;11.33;;;14.80;55.40;;;;;;4934353;29;20437;-72
2021/04/01 07:11:12;;;;;;;21.30;12.73;;;14.90;54.90;;;;;;4931427;29;20429;-72
2021/04/01 07:13:48;;;;;;;23.40;10.30;;;15.00;54.80;;;;;;4934283;29;20429;-71
2021/04/01 07:16:35;;;;;;;18.83;11.17;;;15.20;54.60;;;;;;4916735;29;20467;-71
2021/04/01 07:49:02;;;;;;;43.33;26.70;;;22.20;41.50;;;;;;4935765;29;20446;-73
2021/04/01 07:54:09;;;;;;;39.17;20.07;;;23.20;39.10;;;;;;4935084;29;20413;-73
2021/04/01 07:59:20;;;;;;;40.77;22.63;;;23.40;37.60;;;;;;4935477;29;20425;-73
2021/04/01 08:04:58;;;;;;;41.43;24.87;;;24.40;36.20;;;;;;4910931;29;20449;-73
2021/04/01 08:07:30;;;;;;;44.50;25.87;;;24.90;35.30;;;;;;4910269;29;20433;-74
2021/04/01 08:10:06;;;;;;;50.87;27.30;;;25.40;34.00;;;;;;4925181;29;20453;-72
2021/04/01 08:12:46;;;;;;;39.80;24.93;;;25.40;33.80;;;;;;4934934;29;20556;-73
2021/04/01 08:15:19;;;;;;;40.50;25.10;;;26.00;33.80;;;;;;4934423;29;20429;-74
2021/04/01 08:20:22;;;;;;;46.60;28.60;;;26.50;32.10;;;;;;4932764;29;20418;-73
2021/04/01 08:23:11;;;;;;;47.30;29.40;;;26.60;32.30;;;;;;4935070;29;20480;-72
2021/04/01 08:25:55;;;;;;;43.40;26.17;;;27.00;31.50;;;;;;4933172;29;20437;-74
2021/04/01 08:36:21;;;;;;;53.63;29.50;;;27.70;30.60;;;;;;4931015;29;20457;-74
2021/04/01 08:38:47;;;;;;;43.40;27.70;;;27.50;30.20;;;;;;4933382;29;20508;-72
2021/04/01 08:41:28;;;;;;;54.67;29.87;;;27.10;31.10;;;;;;4939337;28;20453;-72
2021/04/01 08:44:09;;;;;;;54.40;31.67;;;27.20;31.10;;;;;;4930600;29;20166;-72
2021/04/01 08:47:03;;;;;;;54.07;32.00;;;27.80;30.00;;;;;;4900663;29;20774;-73
2021/04/01 08:49:37;;;;;;;48.00;30.73;;;27.80;30.00;;;;;;4919116;29;20476;-72
2021/04/01 08:52:49;;;;;;;57.90;31.57;;;27.80;30.00;;;;;;4932196;29;20900;-72
2021/04/01 08:55:17;;;;;;;51.87;30.40;;;28.10;29.80;;;;;;4916242;29;20431;-74
2021/04/01 08:58:00;;;;;;;47.37;33.30;;;28.40;29.40;;;;;;4932583;29;20908;-72
2021/04/01 09:00:29;;;;;;;67.33;35.70;;;28.60;29.30;;;;;;4937059;29;20420;-72
2021/04/01 09:02:55;;;;;;;55.10;29.37;;;28.50;29.40;;;;;;4936461;29;20874;-72
2021/04/01 09:05:23;;;;;;;51.90;30.57;;;28.10;29.00;;;;;;4917183;29;20417;-72
2021/04/01 09:07:53;;;;;;;45.80;29.50;;;28.00;29.50;;;;;;4934313;29;20417;-71
2021/04/01 09:13:03;;;;;;;54.87;31.10;;;28.40;28.10;;;;;;4935157;29;20926;-72
2021/04/01 09:18:28;;;;;;;59.27;37.60;;;27.80;28.30;;;;;;4931852;29;20444;-73
2021/04/01 09:21:08;;;;;;;65.83;35.77;;;27.90;28.40;;;;;;4902683;29;20465;-73
2021/04/01 09:23:39;;;;;;;59.67;35.90;;;28.50;28.30;;;;;;4922508;29;20468;-74
2021/04/01 09:26:24;;;;;;;65.30;37.23;;;28.70;28.10;;;;;;4936666;29;20439;-72
2021/04/01 09:29:08;;;;;;;64.77;35.53;;;28.80;28.00;;;;;;4903541;29;20528;-72
2021/04/01 09:31:44;;;;;;;61.50;36.10;;;28.70;28.50;;;;;;4913537;29;20875;-72
2021/04/01 09:34:12;;;;;;;61.30;38.10;;;29.10;28.10;;;;;;4903292;29;20417;-72
2021/04/01 09:36:41;;;;;;;58.87;36.87;;;29.20;27.60;;;;;;4906225;29;20540;-73
2021/04/01 09:39:26;;;;;;;54.13;31.17;;;29.10;28.30;;;;;;4938185;29;20487;-73
2021/04/01 09:42:04;;;;;;;53.57;32.23;;;29.10;27.90;;;;;;4932992;29;20433;-72
2021/04/01 09:44:30;;;;;;;64.17;35.67;;;29.10;27.30;;;;;;4931261;29;21010;-72
2021/04/01 09:47:14;;;;;;;60.40;33.40;;;28.80;27.30;;;;;;4933503;29;20523;-72
2021/04/01 09:49:56;;;;;;;55.67;31.57;;;29.00;27.30;;;;;;4919022;29;20555;-72
2021/04/01 09:52:27;;;;;;;56.30;34.67;;;28.90;27.00;;;;;;4917901;29;20931;-71
2021/04/01 09:54:55;;;;;;;52.30;29.93;;;28.80;27.30;;;;;;4938435;29;20395;-72
2021/04/01 09:57:37;;;;;;;59.90;33.67;;;29.10;26.80;;;;;;4937637;29;20942;-73
2021/04/01 10:00:15;;;;;;;57.97;33.00;;;28.70;26.30;;;;;;4938335;29;20774;-73
2021/04/01 10:02:42;;;;;;;59.60;30.77;;;28.50;27.10;;;;;;4935702;29;20496;-72
2021/04/01 10:05:11;;;;;;;56.00;29.53;;;28.40;26.70;;;;;;4939452;29;20508;-73
2021/04/01 10:07:49;;;;;;;54.33;30.03;;;28.50;26.20;;;;;;4920013;29;20967;-72
2021/04/01 10:10:15;;;;;;;59.43;29.20;;;28.40;26.80;;;;;;4934997;29;20423;-71
2021/04/01 10:12:43;;;;;;;54.60;32.90;;;28.50;27.10;;;;;;4919857;29;20409;-72
2021/04/01 10:15:12;;;;;;;60.40;34.60;;;28.60;26.60;;;;;;4936837;29;20520;-71
2021/04/01 10:17:40;;;;;;;56.93;33.10;;;28.40;27.10;;;;;;4936297;29;20915;-72
2021/04/01 10:20:08;;;;;;;50.30;30.70;;;28.20;27.30;;;;;;4919955;29;20551;-73
2021/04/01 10:22:38;;;;;;;57.67;30.90;;;28.30;27.30;;;;;;4931565;29;20422;-73
2021/04/01 10:25:20;;;;;;;50.40;28.30;;;28.40;26.90;;;;;;4919188;29;20422;-72
2021/04/01 10:28:05;;;;;;;56.63;28.40;;;28.10;26.90;;;;;;4934798;29;20480;-71
2021/04/01 10:30:33;;;;;;;52.13;25.93;;;27.60;27.40;;;;;;4934559;29;20427;-73
2021/04/01 10:33:18;;;;;;;49.07;28.13;;;27.40;27.80;;;;;;4936399;29;20602;-71
2021/04/01 10:35:48;;;;;;;53.37;27.17;;;27.40;28.30;;;;;;4922004;29;20473;-72
2021/04/01 10:38:15;;;;;;;48.23;28.20;;;27.50;28.10;;;;;;4933467;29;20501;-71
2021/04/01 10:40:41;;;;;;;53.03;29.67;;;27.40;28.10;;;;;;4916578;29;20508;-71
2021/04/01 10:43:10;;;;;;;46.97;25.43;;;26.70;28.90;;;;;;4936419;29;20906;-73
2021/04/01 10:45:38;;;;;;;55.03;29.07;;;25.90;29.80;;;;;;4936767;29;20523;-72
2021/04/01 10:48:29;;;;;;;57.80;28.37;;;25.40;30.40;;;;;;4918264;29;20948;-73
2021/04/01 10:51:02;;;;;;;42.73;23.83;;;25.10;31.20;;;;;;4934106;29;21086;-73
2021/04/01 10:53:30;;;;;;;49.70;25.30;;;24.90;31.20;;;;;;4935828;29;20437;-72
2021/04/01 10:56:02;;;;;;;43.97;21.60;;;24.50;31.70;;;;;;4936317;29;20457;-73
2021/04/01 10:58:28;;;;;;;41.40;21.63;;;24.20;32.70;;;;;;4935265;29;21030;-72
2021/04/01 11:00:59;;;;;;;42.23;22.47;;;24.10;33.30;;;;;;4936800;28;20448;-72
2021/04/01 11:03:39;;;;;;;39.00;21.07;;;24.00;33.70;;;;;;4912296;29;20833;-74
2021/04/01 11:06:06;;;;;;;47.23;21.63;;;23.90;34.10;;;;;;4947631;29;20519;-72
2021/04/01 11:08:39;;;;;;;44.33;22.70;;;23.80;34.10;;;;;;4947617;29;20434;-71
2021/04/01 11:11:07;;;;;;;39.17;19.07;;;23.60;34.40;;;;;;4916955;29;20976;-72
2021/04/01 11:13:38;;;;;;;42.23;20.47;;;23.50;34.70;;;;;;4936417;29;20409;-71
2021/04/01 11:16:09;;;;;;;50.37;23.13;;;23.60;34.60;;;;;;4932700;29;20807;-71
2021/04/01 11:18:39;;;;;;;49.77;23.27;;;23.70;35.00;;;;;;4938518;29;20483;-72
2021/04/01 11:21:06;;;;;;;50.27;23.03;;;23.70;34.30;;;;;;4937750;29;20429;-73
2021/04/01 11:23:34;;;;;;;45.40;23.37;;;23.60;34.00;;;;;;4933717;29;21115;-72
2021/04/01 11:26:00;;;;;;;45.73;21.30;;;23.40;34.30;;;;;;4936358;29;20496;-72
2021/04/01 11:28:34;;;;;;;51.63;21.00;;;23.40;34.40;;;;;;4934216;29;20511;-72
2021/04/01 11:31:00;;;;;;;43.17;19.67;;;23.50;34.40;;;;;;4919921;29;20481;-72
2021/04/01 11:33:27;;;;;;;43.27;21.67;;;23.50;34.00;;;;;;4934823;29;20409;-75
2021/04/01 11:36:11;;;;;;;40.33;20.77;;;23.60;34.40;;;;;;4917318;29;20513;-72
2021/04/01 11:38:45;;;;;;;43.80;20.90;;;23.60;34.20;;;;;;4934217;29;20433;-71
2021/04/01 11:41:13;;;;;;;42.10;21.00;;;23.50;34.80;;;;;;4938503;29;20961;-72
2021/04/01 11:43:39;;;;;;;48.20;22.73;;;23.60;35.00;;;;;;4932857;29;20417;-71
2021/04/01 11:46:27;;;;;;;46.40;20.57;;;23.60;35.30;;;;;;4934723;29;20608;-74
2021/04/01 11:48:55;;;;;;;45.97;21.20;;;23.50;35.80;;;;;;4934903;29;20549;-72
2021/04/01 11:51:24;;;;;;;42.23;20.20;;;23.30;36.20;;;;;;4935307;29;20406;-72
2021/04/01 11:53:50;;;;;;;48.27;20.07;;;23.40;36.40;;;;;;4935446;29;20544;-72
2021/04/01 11:56:16;;;;;;;48.50;22.57;;;23.40;35.90;;;;;;4934910;29;20540;-70
2021/04/01 11:58:42;;;;;;;48.47;21.77;;;23.40;35.80;;;;;;4934959;29;20454;-72
2021/04/01 12:01:22;;;;;;;47.53;23.30;;;23.50;35.70;;;;;;4918227;29;20417;-73
2021/04/01 12:06:15;;;;;;;53.43;24.33;;;23.50;36.00;;;;;;4916962;29;20556;-71
2021/04/01 12:08:42;;;;;;;47.73;21.80;;;23.50;35.40;;;;;;4934255;29;20422;-70
2021/04/01 12:11:08;;;;;;;42.17;21.43;;;23.50;36.00;;;;;;4934420;29;20506;-70
2021/04/01 12:13:33;;;;;;;49.57;21.73;;;23.70;35.70;;;;;;4915903;29;20658;-69
2021/04/01 12:15:59;;;;;;;44.90;22.83;;;23.60;34.90;;;;;;4933592;29;20272;-69
2021/04/01 12:18:25;;;;;;;49.17;20.63;;;23.70;35.30;;;;;;4933951;29;20197;-70
2021/04/01 12:20:51;;;;;;;42.73;20.83;;;23.70;35.20;;;;;;4917004;29;20257;-70
2021/04/01 12:23:24;;;;;;;66.87;25.90;;;23.70;35.70;;;;;;4934152;29;20182;-71
2021/04/01 12:26:00;;;;;;;52.20;23.13;;;23.60;34.30;;;;;;4915198;29;20422;-70
2021/04/01 12:28:28;;;;;;;55.53;24.03;;;23.50;34.90;;;;;;4916409;29;20453;-71
2021/04/01 12:30:54;;;;;;;57.03;24.80;;;23.50;35.20;;;;;;4933346;29;20420;-71
2021/04/01 12:33:26;;;;;;;49.33;23.83;;;23.40;34.30;;;;;;4916950;29;20425;-69
2021/04/01 12:35:54;;;;;;;52.43;23.10;;;23.30;34.50;;;;;;4939029;29;20407;-70
2021/04/01 12:38:36;;;;;;;54.57;24.30;;;23.20;34.90;;;;;;4910230;29;20446;-70
2021/04/01 12:41:29;;;;;;;56.73;20.73;;;23.20;34.80;;;;;;4915072;29;20433;-71
2021/04/01 12:43:55;;;;;;;42.03;19.90;;;23.10;34.80;;;;;;4913517;29;20423;-70
2021/04/01 12:46:22;;;;;;;49.80;20.80;;;23.10;34.90;;;;;;4915119;29;20561;-70
2021/04/01 12:48:55;;;;;;;43.40;21.83;;;23.10;34.70;;;;;;4898054;29;20439;-69
2021/04/01 12:51:22;;;;;;;46.90;20.20;;;23.10;34.30;;;;;;4930011;29;20400;-70
2021/04/01 12:54:05;;;;;;;53.80;22.20;;;23.00;34.50;;;;;;4934000;29;20474;-70
2021/04/01 12:56:43;;;;;;;71.73;25.70;;;23.10;35.10;;;;;;4934367;29;20428;-71
2021/04/01 12:59:29;;;;;;;55.60;26.53;;;23.10;35.20;;;;;;4934153;29;20448;-69
2021/04/01 13:02:02;;;;;;;48.90;22.33;;;23.00;35.30;;;;;;4934658;29;20498;-69
2021/04/01 13:04:30;;;;;;;55.63;25.50;;;22.90;35.60;;;;;;4917311;29;20421;-69
2021/04/01 13:07:07;;;;;;;51.17;22.03;;;23.00;35.30;;;;;;4933074;29;20460;-70
2021/04/01 13:12:11;;;;;;;45.37;21.57;;;23.00;34.40;;;;;;4940053;28;20489;-70
2021/04/01 13:14:38;;;;;;;52.23;25.00;;;23.00;33.90;;;;;;4935937;29;20764;-69
2021/04/01 13:17:04;;;;;;;48.77;23.23;;;22.90;34.40;;;;;;4934021;29;20765;-70
2021/04/01 13:19:29;;;;;;;64.00;24.57;;;22.80;34.90;;;;;;4933422;29;20448;-70
2021/04/01 13:27:07;;;;;;;47.60;21.33;;;22.70;34.20;;;;;;4956575;29;20451;-69
2021/04/01 13:29:35;;;;;;;42.13;21.13;;;22.60;34.10;;;;;;4935696;29;20460;-71
2021/04/01 13:32:50;;;;;;;65.60;25.37;;;22.50;33.80;;;;;;4923825;29;20484;-73
2021/04/01 13:35:02;;;;;;;52.50;25.50;;;22.30;35.00;;;;;;4931330;29;20427;-73
2021/04/01 13:37:53;;;;;;;52.50;27.40;;;22.30;35.30;;;;;;4937331;29;20510;-74
2021/04/01 13:40:18;;;;;;;50.83;26.90;;;22.30;35.80;;;;;;4953868;29;20929;-72
2021/04/01 13:42:48;;;;;;;54.33;31.10;;;22.20;36.50;;;;;;4918991;29;20911;-72
2021/04/01 13:45:16;;;;;;;57.70;29.53;;;22.10;37.00;;;;;;4949874;29;20564;-72
2021/04/01 13:47:44;;;;;;;64.43;32.90;;;22.10;37.20;;;;;;4953122;28;21219;-71
2021/04/01 13:50:13;;;;;;;63.77;35.10;;;22.00;37.80;;;;;;4941473;29;20900;-73
2021/04/01 13:58:14;;;;;;;73.00;41.17;;;21.70;39.20;;;;;;4917938;29;20958;-72
2021/04/01 14:01:10;;;;;;;69.13;37.40;;;21.70;39.60;;;;;;4936897;29;20438;-72
2021/04/01 14:04:09;;;;;;;77.27;40.03;;;21.50;40.10;;;;;;4929172;29;20494;-72
2021/04/01 14:09:33;;;;;;;75.83;40.83;;;21.50;40.10;;;;;;4939883;29;20442;-72
2021/04/01 14:12:04;;;;;;;77.80;41.43;;;21.50;40.00;;;;;;4946134;29;20516;-72
2021/04/01 14:14:32;;;;;;;81.43;40.63;;;21.50;40.10;;;;;;4935483;29;20811;-72
2021/04/01 14:16:58;;;;;;;80.10;40.20;;;21.60;40.10;;;;;;4954891;29;20422;-73
2021/04/01 14:19:27;;;;;;;79.40;45.47;;;21.40;40.20;;;;;;4955307;28;20838;-73
2021/04/01 14:21:56;;;;;;;83.27;45.20;;;21.40;40.60;;;;;;4948579;29;20225;-72
2021/04/01 14:24:34;;;;;;;73.60;43.27;;;21.30;40.80;;;;;;4945742;29;20441;-73
2021/04/01 14:27:23;;;;;;;92.00;47.27;;;21.20;41.00;;;;;;4941406;29;20419;-71
2021/04/01 14:29:56;;;;;;;78.83;44.73;;;21.20;40.90;;;;;;4945111;28;20554;-73
2021/04/01 14:32:26;;;;;;;84.43;43.80;;;21.20;41.30;;;;;;4936471;29;20442;-72
2021/04/01 14:34:56;;;;;;;83.50;44.60;;;21.10;41.00;;;;;;4927762;29;20425;-74
2021/04/01 14:37:29;;;;;;;82.47;42.30;;;21.00;41.40;;;;;;4912137;29;20422;-71
2021/04/01 14:39:57;;;;;;;80.90;44.03;;;21.00;41.50;;;;;;4919419;29;20439;-73
2021/04/01 14:42:57;;;;;;;72.67;41.53;;;21.10;41.50;;;;;;4936296;29;20395;-72
2021/04/01 14:45:16;;;;;;;75.27;42.20;;;21.10;41.20;;;;;;4926675;29;20532;-72